Time;durP1;ratioP1;P1;durP2;ratioP2;P2;SDS_P1;SDS_P2;PMS_P1;PMS_P2;Temp;Humidity;BMP_temperature;BMP_pressure;BME280_temperature;BME280_humidity;BME280_pressure;Samples;Min_cycle;Max_cycle;Signal;HPM_P1;HPM_P2
2023/02/20 00:00:44;;;;;;;14.70;9.23;;;4.20;99.90;;;;;;2070464;28;20048;-70
2023/02/20 00:01:53;;;;;;;14.70;9.82;;;4.20;99.90;;;;;;2070432;28;20044;-70
2023/02/20 00:02:54;;;;;;;14.75;9.73;;;4.20;99.90;;;;;;2078406;28;20639;-70
2023/02/20 00:03:55;;;;;;;15.18;9.48;;;4.20;99.90;;;;;;2080559;28;20408;-70
2023/02/20 00:04:56;;;;;;;14.95;9.63;;;4.20;99.90;;;;;;2077909;28;20045;-70
2023/02/20 00:05:56;;;;;;;16.38;9.93;;;4.20;99.90;;;;;;2069113;28;20034;-70
2023/02/20 00:06:57;;;;;;;20.10;10.95;;;4.20;99.90;;;;;;2071740;28;20052;-69
2023/02/20 00:07:58;;;;;;;21.80;11.50;;;4.20;99.90;;;;;;2073358;28;20472;-69
2023/02/20 00:08:58;;;;;;;20.98;11.18;;;4.20;99.90;;;;;;2077525;28;20311;-68
2023/02/20 00:09:59;;;;;;;21.23;11.50;;;4.20;99.90;;;;;;2077490;28;20128;-70
2023/02/20 00:10:59;;;;;;;16.85;10.55;;;4.20;99.90;;;;;;2083712;28;20483;-69
2023/02/20 00:12:00;;;;;;;16.63;10.05;;;4.20;99.90;;;;;;2091580;28;20032;-69
2023/02/20 00:13:01;;;;;;;18.25;10.38;;;4.20;99.90;;;;;;2075531;28;20060;-70
2023/02/20 00:14:01;;;;;;;15.52;9.50;;;4.20;99.90;;;;;;2080864;28;20055;-68
2023/02/20 00:15:02;;;;;;;17.42;9.63;;;4.20;99.90;;;;;;2077799;28;20069;-71
2023/02/20 00:16:03;;;;;;;15.82;10.00;;;4.20;99.90;;;;;;2074208;28;20059;-70
2023/02/20 00:17:04;;;;;;;14.40;9.90;;;4.20;99.90;;;;;;2071022;28;20026;-71
2023/02/20 00:18:05;;;;;;;15.55;9.65;;;4.20;99.90;;;;;;2069813;28;20479;-69
2023/02/20 00:19:06;;;;;;;15.98;9.70;;;4.20;99.90;;;;;;2071095;28;20033;-69
2023/02/20 00:20:07;;;;;;;16.88;9.93;;;4.20;99.90;;;;;;2077996;28;20033;-70
2023/02/20 00:21:08;;;;;;;15.43;10.20;;;4.10;99.90;;;;;;2076054;28;20398;-69
2023/02/20 00:22:08;;;;;;;17.38;10.70;;;4.10;99.90;;;;;;2076722;28;20026;-71
2023/02/20 00:23:09;;;;;;;16.95;10.48;;;4.10;99.90;;;;;;2082373;28;20604;-70
2023/02/20 00:24:09;;;;;;;16.55;10.27;;;4.20;99.90;;;;;;2082011;28;20036;-70
2023/02/20 00:25:10;;;;;;;14.80;9.45;;;4.20;99.90;;;;;;2075849;28;20076;-70
2023/02/20 00:26:12;;;;;;;15.65;9.88;;;4.10;99.90;;;;;;2074522;28;20033;-71
2023/02/20 00:27:14;;;;;;;14.02;9.73;;;4.10;99.90;;;;;;2080956;28;20025;-69
2023/02/20 00:28:14;;;;;;;17.15;10.00;;;4.10;99.90;;;;;;2079559;28;20511;-70
2023/02/20 00:29:16;;;;;;;14.50;9.82;;;4.10;99.90;;;;;;2077894;28;20072;-70
2023/02/20 00:30:22;;;;;;;16.20;9.65;;;4.10;99.90;;;;;;2081749;28;20516;-69
2023/02/20 00:31:23;;;;;;;18.23;10.05;;;4.20;99.90;;;;;;2075997;28;20361;-70
2023/02/20 00:32:23;;;;;;;15.05;9.27;;;4.20;99.90;;;;;;2070921;28;20120;-77
2023/02/20 00:33:24;;;;;;;15.40;9.10;;;4.10;99.90;;;;;;2080583;28;20115;-81
2023/02/20 00:34:27;;;;;;;15.57;9.68;;;4.20;99.90;;;;;;2081286;28;20033;-73
2023/02/20 00:35:27;;;;;;;13.07;8.93;;;4.10;99.90;;;;;;2077173;28;20453;-80
2023/02/20 00:36:28;;;;;;;13.63;9.07;;;4.20;99.90;;;;;;2073611;28;20048;-70
2023/02/20 00:37:28;;;;;;;14.40;9.05;;;4.20;99.90;;;;;;2071833;28;20029;-69
2023/02/20 00:38:29;;;;;;;13.55;9.23;;;4.20;99.90;;;;;;2079903;28;20033;-70
2023/02/20 00:39:33;;;;;;;14.32;9.20;;;4.20;99.90;;;;;;2077811;28;20144;-70
2023/02/20 00:40:33;;;;;;;16.33;10.18;;;4.20;99.90;;;;;;2075228;28;20040;-69
2023/02/20 00:41:35;;;;;;;18.15;11.23;;;4.30;99.90;;;;;;2078503;28;20033;-69
2023/02/20 00:42:36;;;;;;;18.92;10.70;;;4.30;99.90;;;;;;2076092;28;20083;-69
2023/02/20 00:43:37;;;;;;;18.25;10.63;;;4.30;99.90;;;;;;2079071;28;20060;-69
2023/02/20 00:44:38;;;;;;;15.25;9.93;;;4.30;99.90;;;;;;2072125;28;20080;-69
2023/02/20 00:45:40;;;;;;;14.60;9.50;;;4.40;99.90;;;;;;2080711;28;20025;-70
2023/02/20 00:46:41;;;;;;;14.25;9.30;;;4.40;99.90;;;;;;2080496;28;20485;-70
2023/02/20 00:47:42;;;;;;;16.08;10.05;;;4.40;99.90;;;;;;2078380;28;20033;-69
2023/02/20 00:48:43;;;;;;;13.73;9.38;;;4.40;99.90;;;;;;2081527;28;20763;-71
2023/02/20 00:50:03;;;;;;;12.73;9.15;;;4.40;99.90;;;;;;2087672;28;20117;-71
2023/02/20 00:51:04;;;;;;;15.38;9.30;;;4.40;99.90;;;;;;2092017;28;20055;-70
2023/02/20 00:52:05;;;;;;;12.75;8.50;;;4.40;99.90;;;;;;2094379;28;20526;-70
2023/02/20 00:53:05;;;;;;;12.40;8.25;;;4.50;99.90;;;;;;2078524;28;20335;-70
2023/02/20 00:54:06;;;;;;;12.98;8.27;;;4.50;99.90;;;;;;2079984;28;20515;-69
2023/02/20 00:55:07;;;;;;;13.15;8.45;;;4.50;99.90;;;;;;2082588;28;20709;-69
2023/02/20 00:56:07;;;;;;;13.35;8.80;;;4.50;99.90;;;;;;2075826;28;20117;-69
2023/02/20 00:57:08;;;;;;;11.40;8.35;;;4.50;99.90;;;;;;2088057;28;20478;-69
2023/02/20 00:58:09;;;;;;;11.57;8.27;;;4.50;99.90;;;;;;2081855;28;20025;-70
2023/02/20 00:59:09;;;;;;;13.18;8.77;;;4.60;99.90;;;;;;2085881;28;20399;-70
2023/02/20 01:00:20;;;;;;;11.63;8.07;;;4.60;99.90;;;;;;2085786;28;20494;-69
2023/02/20 01:01:21;;;;;;;11.98;8.18;;;4.60;99.90;;;;;;2085398;28;20033;-69
2023/02/20 01:02:22;;;;;;;13.95;8.43;;;4.60;99.90;;;;;;2083810;28;20061;-69
2023/02/20 01:03:22;;;;;;;12.07;8.55;;;4.60;99.90;;;;;;2087603;28;20040;-71
2023/02/20 01:04:23;;;;;;;12.25;7.95;;;4.60;99.90;;;;;;2081584;28;20021;-71
2023/02/20 01:05:24;;;;;;;12.73;8.70;;;4.70;99.90;;;;;;2079612;28;20052;-69
2023/02/20 01:06:26;;;;;;;13.07;8.95;;;4.70;99.90;;;;;;2075746;28;20496;-69
2023/02/20 01:07:27;;;;;;;14.23;9.00;;;4.60;99.90;;;;;;2074991;28;20026;-71
2023/02/20 01:08:27;;;;;;;13.68;9.13;;;4.60;99.90;;;;;;2074075;28;20485;-69
2023/02/20 01:09:28;;;;;;;11.95;8.25;;;4.60;99.90;;;;;;2073315;28;20025;-69
2023/02/20 01:10:28;;;;;;;12.13;8.57;;;4.60;99.90;;;;;;2074085;28;20041;-70
2023/02/20 01:11:29;;;;;;;11.85;8.43;;;4.60;99.90;;;;;;2078383;28;20064;-70
2023/02/20 01:12:29;;;;;;;10.82;8.27;;;4.60;99.90;;;;;;2083817;28;20191;-70
2023/02/20 01:13:30;;;;;;;12.38;8.10;;;4.60;99.90;;;;;;2073316;28;20035;-71
2023/02/20 01:14:31;;;;;;;11.15;7.50;;;4.60;99.90;;;;;;2077833;28;20339;-70
2023/02/20 01:15:35;;;;;;;12.98;8.23;;;4.70;99.90;;;;;;2079230;28;20029;-69
2023/02/20 01:16:35;;;;;;;12.13;8.20;;;4.70;99.90;;;;;;2080153;28;20057;-72
2023/02/20 01:17:36;;;;;;;9.77;7.38;;;4.70;99.90;;;;;;2084280;28;20037;-70
2023/02/20 01:18:36;;;;;;;9.55;7.40;;;4.70;99.90;;;;;;2075154;28;20142;-69
2023/02/20 01:19:37;;;;;;;14.35;8.82;;;4.70;99.90;;;;;;2073298;28;20469;-69
2023/02/20 01:20:38;;;;;;;12.00;8.60;;;4.70;99.90;;;;;;2090516;28;20028;-71
2023/02/20 01:21:38;;;;;;;12.25;8.32;;;4.80;99.90;;;;;;2083133;28;20033;-69
2023/02/20 01:22:40;;;;;;;13.18;8.40;;;4.80;99.90;;;;;;2078763;28;20067;-69
2023/02/20 01:23:43;;;;;;;12.43;8.63;;;4.80;99.90;;;;;;2088479;28;20111;-69
2023/02/20 01:24:44;;;;;;;10.93;7.32;;;4.80;99.90;;;;;;2079727;28;20029;-70
2023/02/20 01:25:44;;;;;;;12.43;8.05;;;4.80;99.90;;;;;;2081692;28;20033;-70
2023/02/20 01:26:47;;;;;;;10.85;7.65;;;4.80;99.90;;;;;;2089908;28;20500;-70
2023/02/20 01:27:48;;;;;;;12.82;7.90;;;4.90;99.90;;;;;;2091857;28;20024;-70
2023/02/20 01:28:49;;;;;;;11.18;7.30;;;4.90;99.90;;;;;;2095769;28;20020;-70
2023/02/20 01:29:49;;;;;;;11.55;7.47;;;4.90;99.90;;;;;;2076074;28;20021;-70
2023/02/20 01:30:50;;;;;;;10.77;7.47;;;4.90;99.90;;;;;;2079253;28;20021;-71
2023/02/20 01:31:51;;;;;;;12.57;7.47;;;4.90;99.90;;;;;;2076845;28;20151;-68
2023/02/20 01:32:52;;;;;;;9.93;7.38;;;5.00;99.90;;;;;;2075935;28;20073;-68
2023/02/20 01:33:52;;;;;;;10.10;7.65;;;5.00;99.90;;;;;;2076207;28;20512;-70
2023/02/20 01:34:53;;;;;;;10.52;7.18;;;5.00;99.90;;;;;;2083354;28;20419;-69
2023/02/20 01:35:53;;;;;;;11.85;7.22;;;5.00;99.90;;;;;;2074161;28;20107;-69
2023/02/20 01:36:55;;;;;;;11.07;7.50;;;5.00;99.90;;;;;;2073984;28;20025;-71
2023/02/20 01:37:58;;;;;;;12.32;7.88;;;5.00;99.90;;;;;;2079065;28;20075;-69
2023/02/20 01:38:58;;;;;;;11.13;8.10;;;5.00;99.90;;;;;;2082817;28;20037;-69
2023/02/20 01:39:59;;;;;;;11.75;7.72;;;5.00;99.90;;;;;;2076425;28;20334;-70
2023/02/20 01:41:02;;;;;;;13.10;8.13;;;5.00;99.90;;;;;;2084839;28;20483;-69
2023/02/20 01:42:06;;;;;;;10.93;7.68;;;5.00;99.90;;;;;;2076376;28;20026;-70
2023/02/20 01:43:09;;;;;;;10.13;7.55;;;5.00;99.90;;;;;;2082010;28;20040;-70
2023/02/20 01:44:20;;;;;;;10.98;7.82;;;5.00;99.90;;;;;;2078707;28;20096;-71
2023/02/20 01:45:20;;;;;;;14.38;9.48;;;5.00;99.90;;;;;;2075036;28;20112;-70
2023/02/20 01:46:27;;;;;;;13.35;9.20;;;5.00;99.90;;;;;;2065930;28;20026;-71
2023/02/20 01:47:27;;;;;;;12.40;8.63;;;4.90;99.90;;;;;;2078327;28;20033;-72
2023/02/20 01:48:28;;;;;;;15.77;9.00;;;4.90;99.90;;;;;;2078999;28;20155;-70
2023/02/20 01:49:49;;;;;;;12.18;8.82;;;4.90;99.90;;;;;;2078940;28;20040;-70
2023/02/20 01:50:58;;;;;;;11.68;8.32;;;4.90;99.90;;;;;;2073836;28;20053;-70
2023/02/20 01:52:13;;;;;;;13.90;8.55;;;4.90;99.90;;;;;;2076491;28;20215;-70
2023/02/20 01:53:18;;;;;;;11.68;7.95;;;4.90;99.90;;;;;;2095466;28;20514;-69
2023/02/20 01:54:22;;;;;;;11.75;8.20;;;4.90;99.90;;;;;;2096679;28;20028;-70
2023/02/20 01:55:39;;;;;;;10.55;7.57;;;4.90;99.90;;;;;;2081433;28;20052;-70
2023/02/20 01:56:41;;;;;;;10.45;7.47;;;4.90;99.90;;;;;;2082089;28;20559;-69
2023/02/20 01:57:50;;;;;;;10.18;7.20;;;4.90;99.90;;;;;;2082306;28;20355;-69
2023/02/20 01:58:50;;;;;;;10.88;7.18;;;5.00;99.90;;;;;;2078032;28;20515;-68
2023/02/20 01:59:57;;;;;;;7.80;6.45;;;5.00;99.90;;;;;;2076659;28;20037;-70
2023/02/20 02:00:59;;;;;;;9.23;6.90;;;5.00;99.90;;;;;;2074482;28;20033;-69
2023/02/20 02:02:00;;;;;;;9.57;7.00;;;5.10;99.90;;;;;;2076816;28;20246;-69
2023/02/20 02:03:08;;;;;;;9.65;7.38;;;5.00;99.90;;;;;;2074573;28;20121;-69
2023/02/20 02:04:11;;;;;;;9.98;6.80;;;5.10;99.90;;;;;;2076389;28;20998;-69
2023/02/20 02:05:13;;;;;;;8.38;6.70;;;5.00;99.90;;;;;;2077361;28;20551;-69
2023/02/20 02:06:15;;;;;;;11.15;7.20;;;5.00;99.90;;;;;;2078156;28;20041;-70
2023/02/20 02:07:16;;;;;;;9.65;7.35;;;5.10;99.90;;;;;;2076730;28;20079;-70
2023/02/20 02:08:19;;;;;;;10.10;7.10;;;5.10;99.90;;;;;;2075027;28;20539;-70
2023/02/20 02:09:53;;;;;;;10.00;7.18;;;5.10;99.90;;;;;;2092558;28;20039;-69
2023/02/20 02:11:03;;;;;;;10.10;6.90;;;5.10;99.90;;;;;;2078379;28;20084;-68
2023/02/20 02:12:08;;;;;;;10.27;6.95;;;5.10;99.90;;;;;;2076433;28;20029;-69
2023/02/20 02:13:10;;;;;;;10.15;6.95;;;5.10;99.90;;;;;;2074346;28;20021;-69
2023/02/20 02:14:13;;;;;;;8.57;6.53;;;5.10;99.90;;;;;;2075457;28;20017;-71
2023/02/20 02:15:15;;;;;;;7.72;6.57;;;5.10;99.90;;;;;;2093370;28;20039;-71
2023/02/20 02:16:40;;;;;;;8.27;6.57;;;5.10;99.90;;;;;;2095051;28;20036;-71
2023/02/20 02:17:47;;;;;;;9.52;7.07;;;5.10;99.90;;;;;;2074416;28;20115;-70
2023/02/20 02:19:20;;;;;;;8.48;6.60;;;5.20;99.90;;;;;;2077422;28;20060;-71
2023/02/20 02:20:59;;;;;;;10.05;6.95;;;5.10;99.90;;;;;;2093682;28;20028;-69
2023/02/20 02:22:03;;;;;;;10.30;7.50;;;5.10;99.90;;;;;;2091451;28;20558;-70
2023/02/20 02:23:22;;;;;;;9.23;7.15;;;5.10;99.90;;;;;;2086850;28;20028;-66
2023/02/20 02:24:59;;;;;;;10.18;7.32;;;5.10;99.90;;;;;;2079346;28;20459;-70
2023/02/20 02:26:52;;;;;;;11.45;7.55;;;5.10;99.90;;;;;;2083263;28;20516;-70
2023/02/20 02:28:25;;;;;;;17.30;9.48;;;5.00;99.90;;;;;;2076327;28;20021;-70
2023/02/20 02:29:40;;;;;;;14.00;8.70;;;5.00;99.90;;;;;;2072586;28;20500;-69
2023/02/20 02:30:53;;;;;;;15.20;8.88;;;5.00;99.90;;;;;;2075696;28;20025;-69
2023/02/20 02:32:40;;;;;;;11.50;7.75;;;5.00;99.90;;;;;;2083060;28;20062;-69
2023/02/20 02:34:06;;;;;;;10.93;7.55;;;5.00;99.90;;;;;;2075966;28;20098;-70
2023/02/20 02:35:28;;;;;;;12.70;7.57;;;4.90;99.90;;;;;;2070009;28;20382;-70
2023/02/20 02:36:53;;;;;;;12.60;7.53;;;4.90;99.90;;;;;;2070856;28;20500;-70
2023/02/20 02:38:06;;;;;;;12.48;7.80;;;4.90;99.90;;;;;;2077487;28;20493;-69
2023/02/20 02:39:24;;;;;;;9.80;7.20;;;4.90;99.90;;;;;;2081878;28;20048;-69
2023/02/20 02:40:42;;;;;;;10.27;6.90;;;4.90;99.90;;;;;;2079989;28;20102;-70
2023/02/20 02:42:15;;;;;;;10.32;7.10;;;5.00;99.90;;;;;;2086395;28;20024;-70
2023/02/20 02:43:24;;;;;;;9.48;6.57;;;5.00;99.90;;;;;;2076308;28;20500;-72
2023/02/20 02:44:38;;;;;;;9.00;6.80;;;5.00;99.90;;;;;;2080384;28;20128;-70
2023/02/20 02:45:51;;;;;;;9.07;6.72;;;5.00;99.90;;;;;;2074731;28;20088;-70
2023/02/20 02:47:05;;;;;;;11.80;7.15;;;5.00;99.90;;;;;;2087496;28;20537;-70
2023/02/20 02:48:24;;;;;;;10.55;7.60;;;5.00;99.90;;;;;;2083856;28;20025;-70
2023/02/20 02:49:32;;;;;;;11.55;7.45;;;5.00;99.90;;;;;;2077332;28;20029;-70
2023/02/20 02:50:36;;;;;;;11.70;7.50;;;5.00;99.90;;;;;;2077396;28;20072;-71
2023/02/20 02:51:44;;;;;;;13.63;8.70;;;5.10;99.90;;;;;;2090743;28;20058;-70
2023/02/20 02:52:49;;;;;;;10.85;7.80;;;5.00;99.90;;;;;;2076536;28;20057;-70
2023/02/20 02:54:11;;;;;;;13.23;7.80;;;5.00;99.90;;;;;;2076314;28;20029;-70
2023/02/20 02:55:19;;;;;;;13.18;7.85;;;5.10;99.90;;;;;;2078798;28;20306;-70
2023/02/20 02:56:20;;;;;;;11.93;7.60;;;5.10;99.90;;;;;;2074189;28;20084;-70
2023/02/20 02:57:24;;;;;;;11.82;7.80;;;5.10;99.90;;;;;;2082682;28;20036;-70
2023/02/20 02:58:25;;;;;;;14.18;8.40;;;5.10;99.90;;;;;;2093149;28;20514;-70
2023/02/20 02:59:31;;;;;;;19.10;9.93;;;5.10;99.90;;;;;;2075985;28;20033;-70
2023/02/20 03:00:42;;;;;;;21.42;9.75;;;5.10;99.90;;;;;;2074324;28;20136;-70
2023/02/20 03:01:58;;;;;;;21.55;10.52;;;5.10;99.90;;;;;;2077357;28;20028;-70
2023/02/20 03:03:19;;;;;;;22.20;10.52;;;5.10;99.90;;;;;;2075714;28;20032;-70
2023/02/20 03:04:24;;;;;;;21.73;10.70;;;5.10;99.90;;;;;;2078044;28;20025;-70
2023/02/20 03:05:39;;;;;;;15.40;9.93;;;5.10;99.90;;;;;;2078914;28;20095;-70
2023/02/20 03:06:44;;;;;;;14.27;9.55;;;5.10;99.90;;;;;;2081793;28;20039;-70
2023/02/20 03:07:50;;;;;;;14.82;9.32;;;5.20;99.90;;;;;;2079710;28;20029;-70
2023/02/20 03:08:59;;;;;;;13.13;9.65;;;5.30;99.90;;;;;;2073903;28;20296;-69
2023/02/20 03:10:06;;;;;;;12.52;9.30;;;5.40;99.90;;;;;;2076673;28;20029;-69
2023/02/20 03:11:14;;;;;;;12.80;9.30;;;5.40;99.90;;;;;;2077605;28;20033;-68
2023/02/20 03:12:19;;;;;;;12.45;9.73;;;5.50;99.90;;;;;;2077234;28;20471;-68
2023/02/20 03:15:34;;;;;;;12.57;9.13;;;5.70;99.90;;;;;;2088250;28;20393;-69
2023/02/20 03:16:58;;;;;;;13.32;9.32;;;5.80;99.90;;;;;;2078567;28;20044;-69
2023/02/20 03:18:19;;;;;;;13.98;9.43;;;5.80;99.90;;;;;;2076873;28;20021;-69
2023/02/20 03:19:26;;;;;;;13.43;9.45;;;5.90;99.90;;;;;;2077437;28;20463;-69
2023/02/20 03:20:27;;;;;;;13.30;9.50;;;5.90;99.90;;;;;;2076621;28;20037;-70
2023/02/20 03:21:31;;;;;;;12.68;8.85;;;5.90;99.90;;;;;;2077834;28;20033;-69
2023/02/20 03:22:35;;;;;;;11.50;8.50;;;5.90;99.90;;;;;;2095535;28;20337;-70
2023/02/20 03:23:40;;;;;;;12.82;8.77;;;6.00;99.90;;;;;;2083959;28;20477;-69
2023/02/20 03:24:55;;;;;;;16.25;9.15;;;5.90;99.90;;;;;;2074085;28;20408;-69
2023/02/20 03:26:16;;;;;;;13.10;8.95;;;6.00;99.90;;;;;;2074205;28;20359;-69
2023/02/20 03:27:19;;;;;;;14.45;8.57;;;6.00;99.90;;;;;;2081393;28;20036;-68
2023/02/20 03:28:31;;;;;;;11.43;8.40;;;6.00;99.90;;;;;;2087612;28;20117;-70
2023/02/20 03:29:36;;;;;;;11.05;8.15;;;6.00;99.90;;;;;;2079965;28;20052;-71
2023/02/20 03:31:03;;;;;;;11.45;8.35;;;6.00;99.90;;;;;;2079071;28;20048;-71
2023/02/20 03:43:31;;;;;;;11.57;8.20;;;6.10;99.90;;;;;;2080312;28;19970;-69
2023/02/20 03:44:35;;;;;;;11.27;8.45;;;6.10;99.90;;;;;;2083468;28;20067;-70
2023/02/20 03:45:39;;;;;;;11.80;8.27;;;6.10;99.90;;;;;;2096907;28;20074;-70
2023/02/20 03:46:41;;;;;;;11.48;8.60;;;6.00;99.90;;;;;;2097977;28;20031;-69
2023/02/20 03:47:46;;;;;;;11.18;8.30;;;6.10;99.90;;;;;;2087475;28;20032;-70
2023/02/20 03:48:57;;;;;;;11.45;8.60;;;6.10;99.90;;;;;;2069121;28;20037;-69
2023/02/20 03:50:00;;;;;;;11.32;8.13;;;6.00;99.90;;;;;;2077175;28;20119;-69
2023/02/20 03:51:04;;;;;;;11.73;8.50;;;6.00;99.90;;;;;;2084314;28;20041;-69
2023/02/20 03:52:12;;;;;;;11.85;8.18;;;6.10;99.90;;;;;;2090414;28;20581;-69
2023/02/20 03:53:14;;;;;;;12.20;8.98;;;6.10;99.90;;;;;;2093017;28;20717;-69
2023/02/20 03:54:15;;;;;;;11.55;8.50;;;6.10;99.90;;;;;;2077594;28;20025;-69
2023/02/20 03:55:17;;;;;;;10.27;7.78;;;6.10;99.90;;;;;;2095508;28;20025;-70
2023/02/20 03:56:24;;;;;;;11.02;8.35;;;6.10;99.90;;;;;;2085203;28;20083;-69
2023/02/20 03:57:32;;;;;;;11.30;7.80;;;6.10;99.90;;;;;;2073114;28;20053;-71
2023/02/20 03:58:37;;;;;;;11.13;8.02;;;6.10;99.90;;;;;;2091739;28;20035;-69
2023/02/20 03:59:56;;;;;;;12.18;8.52;;;6.10;99.90;;;;;;2094071;28;20033;-70
2023/02/20 04:01:00;;;;;;;10.88;7.57;;;6.10;99.90;;;;;;2074331;28;20049;-71
2023/02/20 04:02:09;;;;;;;10.82;7.78;;;6.10;99.90;;;;;;2082214;28;20133;-68
2023/02/20 04:03:23;;;;;;;10.55;7.90;;;6.10;99.90;;;;;;2099719;28;20127;-70
2023/02/20 04:04:39;;;;;;;11.20;8.15;;;6.10;99.90;;;;;;2089003;28;20070;-69
2023/02/20 04:05:45;;;;;;;11.68;8.00;;;6.10;99.90;;;;;;2084490;28;20111;-69
2023/02/20 04:06:51;;;;;;;11.18;8.38;;;6.10;99.90;;;;;;2078025;28;20123;-69
2023/02/20 04:08:07;;;;;;;11.52;8.02;;;6.10;99.90;;;;;;2076812;28;20020;-69
2023/02/20 04:09:13;;;;;;;11.38;8.32;;;6.10;99.90;;;;;;2068020;28;20141;-69
2023/02/20 04:10:19;;;;;;;10.35;7.38;;;6.10;99.90;;;;;;2068724;28;20046;-69
2023/02/20 04:11:30;;;;;;;10.45;7.53;;;6.10;99.90;;;;;;2088459;28;20024;-69
2023/02/20 04:12:40;;;;;;;11.95;7.97;;;6.10;99.90;;;;;;2082256;28;20071;-69
2023/02/20 04:13:42;;;;;;;11.35;8.05;;;6.10;99.90;;;;;;2076733;28;20113;-70
2023/02/20 04:14:45;;;;;;;10.55;7.93;;;6.10;99.90;;;;;;2081368;28;20047;-70
2023/02/20 04:15:47;;;;;;;10.68;7.72;;;6.10;99.90;;;;;;2083135;28;20116;-69
2023/02/20 04:16:55;;;;;;;11.98;8.18;;;6.10;99.90;;;;;;2091349;28;20032;-70
2023/02/20 04:18:08;;;;;;;11.90;8.13;;;6.10;99.90;;;;;;2075852;28;20036;-71
2023/02/20 04:19:09;;;;;;;12.27;8.00;;;6.10;99.90;;;;;;2073916;28;20025;-69
2023/02/20 04:20:10;;;;;;;12.40;7.97;;;6.10;99.90;;;;;;2089246;28;20024;-69
2023/02/20 04:21:25;;;;;;;11.02;8.00;;;6.10;99.90;;;;;;2079006;28;20415;-70
2023/02/20 04:22:30;;;;;;;10.70;7.40;;;6.00;99.90;;;;;;2082560;28;20064;-70
2023/02/20 04:23:36;;;;;;;10.88;7.68;;;6.00;99.90;;;;;;2087597;28;20132;-70
2023/02/20 04:24:46;;;;;;;11.02;7.65;;;6.00;99.90;;;;;;2074074;28;20056;-72
2023/02/20 04:25:59;;;;;;;11.90;8.35;;;6.00;99.90;;;;;;2080272;28;20116;-71
2023/02/20 04:27:02;;;;;;;14.00;8.13;;;6.00;99.90;;;;;;2089385;28;20083;-70
2023/02/20 04:28:04;;;;;;;11.43;7.32;;;6.00;99.90;;;;;;2089445;28;20044;-70
2023/02/20 04:29:09;;;;;;;10.85;7.72;;;6.00;99.90;;;;;;2071401;28;20256;-70
2023/02/20 04:30:10;;;;;;;10.70;7.80;;;6.00;99.90;;;;;;2059526;28;20018;-70
2023/02/20 04:31:14;;;;;;;11.98;7.70;;;6.00;99.90;;;;;;2073254;28;20033;-69
2023/02/20 04:32:14;;;;;;;11.40;7.75;;;6.00;99.90;;;;;;2090012;28;20523;-70
2023/02/20 04:33:15;;;;;;;10.35;7.30;;;6.10;99.90;;;;;;2095078;28;20119;-70
2023/02/20 04:34:16;;;;;;;11.52;7.55;;;6.10;99.90;;;;;;2074709;28;20404;-70
2023/02/20 04:35:18;;;;;;;9.60;7.00;;;6.10;99.90;;;;;;2066078;28;20643;-70
2023/02/20 04:36:21;;;;;;;10.75;7.50;;;6.10;99.90;;;;;;2085116;28;20291;-70
2023/02/20 04:37:24;;;;;;;11.88;7.45;;;6.10;99.90;;;;;;2083139;28;20036;-69
2023/02/20 04:38:27;;;;;;;11.68;7.28;;;6.10;99.90;;;;;;2081929;28;20028;-70
2023/02/20 04:39:28;;;;;;;11.80;8.00;;;6.10;99.90;;;;;;2081772;28;20025;-70
2023/02/20 04:40:29;;;;;;;11.45;7.90;;;6.10;99.90;;;;;;2079166;28;20033;-70
2023/02/20 04:41:29;;;;;;;11.50;7.80;;;6.10;99.90;;;;;;2077021;28;20508;-67
2023/02/20 04:42:30;;;;;;;11.88;8.18;;;6.10;99.90;;;;;;2086747;28;20028;-69
2023/02/20 04:43:32;;;;;;;13.07;8.70;;;6.20;99.90;;;;;;2084287;28;20025;-72
2023/02/20 04:44:34;;;;;;;11.82;8.27;;;6.20;99.90;;;;;;2072931;28;20620;-70
2023/02/20 04:45:37;;;;;;;13.43;8.70;;;6.20;99.90;;;;;;2078881;28;20108;-70
2023/02/20 04:46:38;;;;;;;13.45;8.30;;;6.30;99.90;;;;;;2079168;28;20430;-70
2023/02/20 04:47:39;;;;;;;11.70;8.23;;;6.30;99.90;;;;;;2089293;28;20032;-70
2023/02/20 04:48:40;;;;;;;11.00;7.90;;;6.30;99.90;;;;;;2078217;28;20043;-70
2023/02/20 04:49:41;;;;;;;12.32;8.43;;;6.30;99.90;;;;;;2077220;28;22534;-70
2023/02/20 04:50:43;;;;;;;12.63;7.80;;;6.30;99.90;;;;;;2088268;28;20074;-70
2023/02/20 04:51:46;;;;;;;12.05;8.57;;;6.30;99.90;;;;;;2089079;28;20035;-70
2023/02/20 04:52:47;;;;;;;13.45;8.70;;;6.30;99.90;;;;;;2080442;28;20048;-70
2023/02/20 04:53:47;;;;;;;12.50;8.23;;;6.40;99.90;;;;;;2090488;28;20095;-69
2023/02/20 04:54:48;;;;;;;13.13;8.88;;;6.40;99.90;;;;;;2092879;28;20095;-69
2023/02/20 04:55:49;;;;;;;13.52;8.98;;;6.40;99.90;;;;;;2075542;28;20124;-69
2023/02/20 04:56:53;;;;;;;13.07;8.23;;;6.40;99.90;;;;;;2085235;28;20117;-69
2023/02/20 04:57:56;;;;;;;14.32;9.45;;;6.40;99.90;;;;;;2078364;28;20024;-69
2023/02/20 04:58:58;;;;;;;13.23;9.15;;;6.30;99.90;;;;;;2058059;28;20314;-69
2023/02/20 04:59:59;;;;;;;13.05;8.65;;;6.40;99.90;;;;;;2085620;28;20054;-69
2023/02/20 05:00:59;;;;;;;14.00;9.20;;;6.40;99.90;;;;;;2094923;28;20052;-68
2023/02/20 05:02:00;;;;;;;13.98;9.27;;;6.40;99.90;;;;;;2080173;28;20033;-69
2023/02/20 05:03:02;;;;;;;13.18;8.95;;;6.40;99.90;;;;;;2081123;28;20086;-69
2023/02/20 05:04:03;;;;;;;13.48;9.30;;;6.40;99.90;;;;;;2091622;28;20044;-69
2023/02/20 05:05:06;;;;;;;14.25;9.00;;;6.40;99.90;;;;;;2081572;28;20029;-69
2023/02/20 05:06:06;;;;;;;13.68;9.18;;;6.40;99.90;;;;;;2074140;28;20033;-69
2023/02/20 05:07:07;;;;;;;14.80;9.90;;;6.50;99.90;;;;;;2076681;28;20389;-70
2023/02/20 05:08:08;;;;;;;14.20;9.52;;;6.40;99.90;;;;;;2079555;28;20028;-69
2023/02/20 05:09:09;;;;;;;14.15;9.52;;;6.50;99.90;;;;;;2077346;28;20032;-69
2023/02/20 05:10:19;;;;;;;13.52;9.50;;;6.50;99.90;;;;;;2077589;28;20032;-69
2023/02/20 05:11:20;;;;;;;14.75;9.68;;;6.50;99.90;;;;;;2077183;28;20071;-69
2023/02/20 05:12:21;;;;;;;16.48;10.02;;;6.50;99.90;;;;;;2078432;28;20660;-70
2023/02/20 05:13:21;;;;;;;16.50;9.95;;;6.50;99.90;;;;;;2078597;28;20048;-69
2023/02/20 05:14:22;;;;;;;13.55;9.15;;;6.50;99.90;;;;;;2081076;28;20033;-69
2023/02/20 05:15:24;;;;;;;15.82;9.65;;;6.50;99.90;;;;;;2073337;28;20045;-69
2023/02/20 05:16:25;;;;;;;15.07;9.93;;;6.50;99.90;;;;;;2073841;28;20029;-69
2023/02/20 05:17:25;;;;;;;13.77;9.38;;;6.50;99.90;;;;;;2078180;28;20033;-69
2023/02/20 05:18:27;;;;;;;14.90;10.27;;;6.50;99.90;;;;;;2076356;28;20037;-70
2023/02/20 05:19:28;;;;;;;15.52;9.98;;;6.50;99.90;;;;;;2075846;28;20397;-70
2023/02/20 05:23:10;;;;;;;15.38;9.90;;;6.50;99.90;;;;;;2076352;28;20025;-70
2023/02/20 05:24:11;;;;;;;15.13;10.32;;;6.60;99.90;;;;;;2080923;28;20396;-70
2023/02/20 05:25:13;;;;;;;17.27;11.02;;;6.50;99.90;;;;;;2092937;28;20035;-70
2023/02/20 05:26:19;;;;;;;16.67;10.70;;;6.50;99.90;;;;;;2083324;28;20025;-70
2023/02/20 05:27:21;;;;;;;15.38;10.27;;;6.60;99.90;;;;;;2074964;28;20144;-68
2023/02/20 05:28:21;;;;;;;16.67;10.57;;;6.60;99.90;;;;;;2078009;28;20044;-70
2023/02/20 05:29:22;;;;;;;16.20;11.25;;;6.60;99.90;;;;;;2076886;28;20032;-70
2023/02/20 05:30:22;;;;;;;15.18;10.70;;;6.60;99.90;;;;;;2075480;28;20025;-69
2023/02/20 05:31:23;;;;;;;17.27;11.38;;;6.60;99.90;;;;;;2076571;28;20639;-69
2023/02/20 05:32:27;;;;;;;15.43;10.75;;;6.60;99.90;;;;;;2074722;28;20036;-73
2023/02/20 05:33:27;;;;;;;17.63;10.73;;;6.60;99.90;;;;;;2073983;28;20041;-69
2023/02/20 05:34:28;;;;;;;18.30;11.38;;;6.60;99.90;;;;;;2080989;28;20029;-69
2023/02/20 05:35:28;;;;;;;16.08;10.65;;;6.60;99.90;;;;;;2081111;28;20041;-69
2023/02/20 05:36:29;;;;;;;17.27;10.55;;;6.60;99.90;;;;;;2098449;28;20028;-69
2023/02/20 05:37:29;;;;;;;17.33;11.15;;;6.70;99.90;;;;;;2099010;28;20101;-68
2023/02/20 05:38:30;;;;;;;31.08;12.13;;;6.70;99.90;;;;;;2083389;28;20062;-69
2023/02/20 05:39:30;;;;;;;20.42;11.65;;;6.70;99.90;;;;;;2078882;28;20022;-70
2023/02/20 05:40:31;;;;;;;20.00;11.52;;;6.70;99.90;;;;;;2085160;28;20569;-70
2023/02/20 05:41:32;;;;;;;17.58;11.05;;;6.70;99.90;;;;;;2076568;28;20503;-71
2023/02/20 05:42:32;;;;;;;19.52;11.13;;;6.70;99.90;;;;;;2080474;28;20025;-69
2023/02/20 05:43:33;;;;;;;18.92;11.10;;;6.70;99.90;;;;;;2082685;28;20460;-67
2023/02/20 05:44:34;;;;;;;19.08;11.13;;;6.70;99.90;;;;;;2092897;28;20024;-70
2023/02/20 05:45:34;;;;;;;20.90;11.90;;;6.70;99.90;;;;;;2086413;28;20504;-70
2023/02/20 05:46:42;;;;;;;16.05;10.52;;;6.70;99.90;;;;;;2077788;28;20028;-70
2023/02/20 05:47:42;;;;;;;18.27;11.20;;;6.70;99.90;;;;;;2077817;28;20141;-71
2023/02/20 05:48:47;;;;;;;20.88;11.20;;;6.70;99.90;;;;;;2076511;28;20048;-71
2023/02/20 05:49:47;;;;;;;17.92;11.00;;;6.80;99.90;;;;;;2095148;28;20032;-70
2023/02/20 05:50:49;;;;;;;17.00;11.20;;;6.70;99.90;;;;;;2079209;28;20424;-69
2023/02/20 05:51:55;;;;;;;17.85;11.18;;;6.70;99.90;;;;;;2081381;28;20021;-69
2023/02/20 05:52:56;;;;;;;18.67;10.75;;;6.70;99.90;;;;;;2093452;28;20036;-69
2023/02/20 05:53:57;;;;;;;17.60;10.85;;;6.70;99.90;;;;;;2077021;28;20029;-68
2023/02/20 05:54:57;;;;;;;17.55;10.75;;;6.70;99.90;;;;;;2082894;28;20061;-69